Latest Weather Observations for Ulladulla

IDN60801

Issued at 6:04 pm EST Wednesday 27 May 2015 (issued every 30 minutes, with the page automatically refreshed every 10 minutes)

About weather observations | Map of weather stations | Latest weather observations for NSW | Other Formats
Station Details ID: 069138 Name: ULLADULLA AWS Lat: -35.36 Lon: 150.48 Height: 35.7 m
Data from the previous 72 hours. | See also: Recent months at Ulladulla
Date/Time
EST
Temp
°C
App
Temp
°C
Dew
Point
Rel
Hum
%
Delta-T
°C
Wind Press
QNH
hPa
Press
MSL
hPa
Rain
since 9 am
mm
Dir
 
Spd
km/h
Gust
km/h
Spd
kts
Gust
kts
27/06:00pm 16.6 15.2 9.5 63 3.7 WNW 7 9 4 5 1020.8 1020.8 0.0
27/05:30pm 16.5 15.7 11.0 70 2.9 NNW 6 9 3 5 1020.7 1020.7 0.0
27/05:00pm 17.9 17.4 12.1 69 3.2 N 6 9 3 5 1020.5 1020.5 0.0
27/04:30pm 18.5 18.1 11.1 62 4.0 NNW 4 9 2 5 1020.4 1020.4 0.0
27/04:00pm 18.6 17.8 10.9 61 4.2 N 6 9 3 5 1020.4 1020.4 0.0
27/03:30pm 18.8 17.9 10.6 59 4.4 NNE 6 11 3 6 1020.5 1020.5 0.0
27/03:00pm 19.1 17.8 9.3 53 5.2 N 6 9 3 5 1020.5 1020.5 0.0
27/02:30pm 18.9 17.8 9.9 56 4.8 NE 6 7 3 4 1020.4 1020.4 0.0
27/02:00pm 18.9 17.7 9.4 54 5.0 NNE 6 9 3 5 1020.5 1020.5 0.0
27/01:30pm 18.7 17.4 9.2 54 5.0 NE 6 9 3 5 1020.6 1020.6 0.0
27/01:00pm 18.4 16.9 8.4 52 5.1 NNE 6 7 3 4 1021.0 1021.0 0.0
27/12:30pm 17.8 16.0 8.1 53 5.0 NNE 7 9 4 5 1021.4 1021.4 0.0
27/12:00pm 17.6 16.1 8.5 55 4.7 NNE 6 9 3 5 1021.7 1021.7 0.0
27/11:30am 17.4 16.1 9.3 59 4.2 N 6 9 3 5 1022.3 1022.3 0.0
27/11:00am 16.6 14.9 7.5 55 4.5 NNE 6 7 3 4 1022.8 1022.8 0.0
27/10:30am 16.5 15.2 7.7 56 4.4 NNE 4 6 2 3 1023.3 1023.3 0.0
27/10:00am 16.6 15.7 7.8 56 4.4 NNE 2 6 1 3 1023.6 1023.6 0.0
27/09:30am 15.7 14.8 7.7 59 4.0 N 2 4 1 2 1023.6 1023.6 0.0
27/09:00am 14.5 13.6 9.1 70 2.7 NNW 4 7 2 4 1023.6 1023.6 0.0
27/08:30am 12.8 10.9 7.7 71 2.5 NNW 7 11 4 6 1023.7 1023.7 0.0
27/08:00am 11.9 10.0 7.6 75 2.1 NNW 7 9 4 5 1023.7 1023.7 0.0
27/07:30am 11.3 9.5 8.0 80 1.6 N 7 11 4 6 1023.6 1023.6 0.0
27/07:00am 10.2 8.5 7.6 84 1.2 N 6 7 3 4 1023.5 1023.5 0.0
27/06:30am 10.2 8.3 6.5 78 1.7 NNW 6 7 3 4 1023.4 1023.4 0.0
27/06:00am 10.3 8.8 7.0 80 1.6 NNW 4 6 2 3 1023.0 1023.0 0.0
27/05:30am 11.1 9.6 8.3 83 1.4 NNW 6 7 3 4 1023.2 1023.2 0.0
27/05:00am 11.6 10.5 8.6 82 1.5 NNW 4 7 2 4 1023.1 1023.1 0.0
27/04:30am 11.9 10.9 8.7 81 1.6 NNW 4 6 2 3 1023.4 1023.4 0.0
27/04:00am 11.9 10.6 9.3 84 1.3 NNW 6 7 3 4 1023.6 1023.6 0.0
27/03:30am 12.2 11.4 9.8 85 1.2 N 4 6 2 3 1023.7 1023.7 0.0
27/03:00am 11.6 10.6 9.0 84 1.3 NNW 4 4 2 2 1024.0 1024.0 0.0
27/02:30am 11.9 11.1 9.5 85 1.2 NNW 4 4 2 2 1024.6 1024.6 0.0
27/02:00am 12.0 11.9 9.6 85 1.2 CALM 0 0 0 0 1024.8 1024.8 0.0
27/01:30am 11.9 11.3 9.1 83 1.4 W 2 6 1 3 1024.8 1024.8 0.0
27/01:00am 12.5 11.1 9.0 79 1.7 WNW 6 7 3 4 1024.9 1024.9 0.0
27/12:30am 12.8 11.8 8.9 77 2.0 NW 4 6 2 3 1025.1 1025.1 0.0
27/12:00am 13.2 11.9 9.1 76 2.1 NW 6 7 3 4 1025.4 1025.4 0.0
 
Date/Time
EST
Temp
°C
App
Temp
°C
Dew
Point
Rel
Hum
%
Delta-T
°C
Wind Press
QNH
hPa
Press
MSL
hPa
Rain
since 9 am
mm
Dir
 
Spd
km/h
Gust
km/h
Spd
kts
Gust
kts
26/11:30pm 12.9 12.1 9.5 80 1.7 NW 4 6 2 3 1025.4 1025.4 0.0
26/11:00pm 13.4 12.1 9.3 76 2.1 WNW 6 7 3 4 1026.0 1025.9 0.0
26/10:30pm 13.1 12.2 9.2 77 2.0 WNW 4 6 2 3 1026.0 1025.9 0.0
26/10:00pm 13.1 11.8 9.2 77 2.0 W 6 7 3 4 1026.2 1026.1 0.0
26/09:30pm 13.1 11.9 9.4 78 1.9 W 6 7 3 4 1026.5 1026.4 0.0
26/09:00pm 12.4 11.5 9.2 81 1.6 NW 4 6 2 3 1026.4 1026.3 0.0
26/08:30pm 12.3 11.4 9.1 81 1.6 WNW 4 6 2 3 1026.5 1026.4 0.0
26/08:00pm 12.5 11.2 9.1 80 1.7 NW 6 7 3 4 1026.7 1026.6 0.0
26/07:30pm 12.8 11.5 9.3 79 1.8 WNW 6 7 3 4 1026.9 1026.8 0.0
26/07:00pm 12.3 12.0 8.8 79 1.7 CALM 0 4 0 2 1026.9 1026.8 0.0
26/06:30pm 13.1 12.9 9.0 76 2.1 CALM 0 0 0 0 1026.8 1026.7 0.0
26/06:00pm 13.2 13.0 8.9 75 2.2 CALM 0 0 0 0 1026.5 1026.4 0.0
26/05:30pm 13.9 13.3 9.1 73 2.4 E 2 6 1 3 1026.2 1026.1 0.0
26/05:00pm 14.1 13.9 8.9 71 2.6 CALM 0 0 0 0 1026.1 1026.0 0.0
26/04:30pm 15.0 15.0 9.8 71 2.7 CALM 0 0 0 0 1026.2 1026.1 0.0
26/04:00pm 15.5 15.4 9.4 67 3.1 CALM 0 0 0 0 1026.3 1026.2 0.0
26/03:30pm 15.9 14.9 8.9 63 3.6 E 4 6 2 3 1026.3 1026.2 0.0
26/03:00pm 16.5 15.9 9.0 61 3.8 SE 2 6 1 3 1026.6 1026.5 0.0
26/02:30pm 16.6 15.3 9.1 61 3.9 SSE 6 13 3 7 1026.8 1026.7 0.0
26/02:00pm 16.4 14.7 8.4 59 4.1 S 7 11 4 6 1027.0 1026.9 0.0
26/01:30pm 16.7 15.1 8.7 59 4.1 SSE 7 11 4 6 1027.3 1027.2 0.0
26/01:00pm 16.6 14.9 8.3 58 4.2 S 7 11 4 6 1027.6 1027.5 0.0
26/12:30pm 16.5 14.4 8.2 58 4.2 S 9 15 5 8 1028.1 1028.0 0.0
26/12:00pm 16.4 14.4 8.6 60 4.0 S 9 15 5 8 1028.6 1028.5 0.0
26/11:30am 16.6 14.7 9.1 61 3.9 S 9 13 5 7 1029.0 1028.9 0.0
26/11:00am 16.4 14.8 8.6 60 4.0 SSW 7 13 4 7 1029.4 1029.3 0.0
26/10:30am 15.8 13.7 8.1 60 3.9 SW 9 15 5 8 1029.7 1029.6 0.0
26/10:00am 15.7 13.6 8.2 61 3.8 WSW 9 15 5 8 1029.7 1029.6 0.0
26/09:30am 15.4 14.0 9.5 68 3.1 WSW 7 13 4 7 1029.9 1029.8 0.0
26/09:00am 14.3 12.6 8.3 67 3.0 WSW 7 13 4 7 1030.0 1029.9 0.0
26/08:30am 13.6 11.5 8.4 71 2.6 WSW 9 13 5 7 1029.9 1029.8 0.0
26/08:00am 12.3 10.2 8.2 76 2.0 W 9 13 5 7 1029.9 1029.8 0.0
26/07:30am 10.7 8.5 7.9 83 1.4 WSW 9 13 5 7 1029.6 1029.5 0.0
26/07:00am 10.0 7.7 7.4 84 1.2 W 9 13 5 7 1029.2 1029.1 0.0
26/06:30am 10.1 7.9 7.7 85 1.2 WSW 9 11 5 6 1028.9 1028.8 0.0
26/06:00am 10.0 7.7 7.4 84 1.2 WSW 9 11 5 6 1028.4 1028.3 0.0
26/05:30am 10.3 8.0 7.5 83 1.3 W 9 13 5 7 1028.4 1028.3 0.0
26/05:00am 10.5 8.2 7.6 82 1.4 W 9 13 5 7 1028.6 1028.5 0.0
26/04:30am 10.3 8.0 7.4 82 1.4 W 9 13 5 7 1028.7 1028.6 0.0
26/04:00am 10.6 7.9 7.5 81 1.5 W 11 13 6 7 1028.8 1028.7 0.0
26/03:30am 10.8 8.6 7.7 81 1.5 W 9 13 5 7 1028.8 1028.7 0.0
26/03:00am 11.0 8.8 7.7 80 1.6 W 9 13 5 7 1028.9 1028.8 0.0
26/02:30am 11.1 8.9 7.8 80 1.6 WSW 9 15 5 8 1029.0 1028.9 0.0
26/02:00am 11.2 9.0 7.7 79 1.7 WSW 9 13 5 7 1029.0 1028.9 0.0
26/01:30am 11.4 9.1 7.5 77 1.9 WSW 9 15 5 8 1029.2 1029.1 0.0
26/01:00am 11.6 9.3 7.3 75 2.1 WSW 9 15 5 8 1029.5 1029.4 0.0
26/12:30am 11.8 9.4 7.1 73 2.3 WSW 9 13 5 7 1029.6 1029.5 0.0
26/12:00am 12.2 9.9 7.3 72 2.4 WSW 9 13 5 7 1029.6 1029.5 0.0
 
Date/Time
EST
Temp
°C
App
Temp
°C
Dew
Point
Rel
Hum
%
Delta-T
°C
Wind Press
QNH
hPa
Press
MSL
hPa
Rain
since 9 am
mm
Dir
 
Spd
km/h
Gust
km/h
Spd
kts
Gust
kts
25/11:30pm 12.3 9.6 7.4 72 2.4 WSW 11 17 6 9 1029.4 1029.3 0.0
25/11:00pm 12.3 9.9 7.0 70 2.5 WSW 9 15 5 8 1029.7 1029.6 0.0
25/10:30pm 12.4 9.9 6.7 68 2.7 WSW 9 17 5 9 1029.7 1029.6 0.0
25/10:00pm 12.6 9.8 6.9 68 2.7 WSW 11 19 6 10 1029.7 1029.6 0.0
25/09:30pm 12.6 9.8 7.1 69 2.7 WSW 11 17 6 9 1029.8 1029.7 0.0
25/09:00pm 12.4 10.1 7.3 71 2.5 WSW 9 17 5 9 1029.6 1029.5 0.0
25/08:30pm 12.3 9.7 7.6 73 2.3 WSW 11 17 6 9 1029.4 1029.3 0.0
25/08:00pm 12.3 9.7 7.6 73 2.3 WSW 11 15 6 8 1029.4 1029.3 0.0
25/07:30pm 12.4 9.9 8.3 76 2.0 WSW 11 15 6 8 1029.4 1029.3 0.0
25/07:00pm 12.2 10.2 8.7 79 1.7 WSW 9 13 5 7 1029.1 1029.0 0.0
25/06:30pm 11.9 10.3 8.6 80 1.6 W 7 11 4 6 1028.8 1028.7 0.0
25/06:00pm 12.0 10.6 8.7 80 1.6 W 6 9 3 5 1028.5 1028.4 0.0
25/05:30pm 12.5 11.0 9.0 79 1.8 WSW 7 11 4 6 1028.3 1028.2 0.0
25/05:00pm 13.0 11.4 8.9 76 2.0 WSW 7 11 4 6 1028.3 1028.2 0.0
25/04:30pm 13.9 12.3 8.9 72 2.5 WSW 7 9 4 5 1028.3 1028.2 0.0
25/04:00pm 15.0 12.5 9.6 70 2.8 SSW 13 20 7 11 1028.2 1028.1 0.0
25/03:30pm 16.0 13.4 9.2 64 3.5 SSW 13 20 7 11 1028.2 1028.1 0.0
25/03:00pm 16.4 12.9 8.9 61 3.8 S 17 20 9 11 1028.2 1028.1 0.0
25/02:30pm 16.5 14.3 9.2 62 3.8 S 11 17 6 9 1028.1 1028.0 0.0
25/02:00pm 16.5 14.1 8.5 59 4.1 S 11 17 6 9 1028.1 1028.0 0.0
25/01:30pm 16.8 15.4 8.8 59 4.1 SSE 6 9 3 5 1028.1 1028.0 0.0
25/01:00pm 16.4 14.6 8.1 58 4.2 S 7 9 4 5 1028.2 1028.1 0.0
25/12:30pm 16.3 14.7 8.0 58 4.2 SSE 6 9 3 5 1028.3 1028.2 0.0
25/12:00pm 15.8 15.4 8.3 61 3.8 CALM 0 0 0 0 1028.6 1028.5 0.0
25/11:30am 16.0 15.7 8.7 62 3.7 CALM 0 6 0 3 1029.3 1029.2 0.0
25/11:00am 15.1 14.2 9.2 68 3.0 S 4 6 2 3 1029.7 1029.6 0.0
25/10:30am 14.6 13.1 8.3 66 3.2 S 6 7 3 4 1029.7 1029.6 0.0
25/10:00am 14.8 14.4 8.1 64 3.3 CALM 0 0 0 0 1030.1 1030.0 0.0
25/09:30am 13.4 12.4 7.4 67 2.9 NW 2 6 1 3 1030.6 1030.5 0.0
25/09:00am 12.4 11.3 8.3 76 2.0 N 4 6 2 3 1030.4 1030.3 0.0
25/08:30am 11.7 10.4 7.6 76 2.0 NNE 4 6 2 3 1030.2 1030.1 0.0
25/08:00am 9.8 7.9 4.8 71 2.2 SSW 4 6 2 3 1030.3 1030.2 0.0
25/07:30am 9.5 7.0 3.9 68 2.5 NW 6 9 3 5 1030.5 1030.4 0.0
25/07:00am 7.7 5.0 3.7 76 1.7 NNW 7 9 4 5 1030.4 1030.3 0.0
25/06:30am 8.0 6.1 4.9 81 1.4 NNW 4 6 2 3 1030.1 1030.0 0.0
25/06:00am 8.2 6.0 5.1 81 1.4 NNW 6 6 3 3 1030.2 1030.1 0.0
25/05:30am 9.1 7.8 6.0 81 1.4 NNE 2 4 1 2 1029.9 1029.8 0.0
25/05:00am 8.0 6.8 4.6 79 1.5 CALM 0 2 0 1 1029.8 1029.7 0.0
25/04:30am 8.1 5.7 5.4 83 1.2 NW 7 9 4 5 1030.0 1029.9 0.0
25/04:00am 7.9 5.8 6.0 88 0.9 NNW 6 6 3 3 1030.0 1029.9 0.0
25/03:30am 8.3 6.6 6.1 86 1.0 N 4 6 2 3 1030.0 1029.9 0.0
25/03:00am 9.0 7.9 6.8 86 1.0 N 2 4 1 2 1030.3 1030.2 0.0
25/02:30am 9.3 8.5 6.4 82 1.3 CALM 0 0 0 0 1030.7 1030.6 0.0
25/02:00am 9.8 7.9 6.7 81 1.4 NNW 6 6 3 3 1031.1 1031.0 0.0
25/01:30am 10.2 8.3 6.9 80 1.6 NNW 6 7 3 4 1031.0 1030.9 0.0
25/01:00am 10.6 8.7 6.7 77 1.8 N 6 6 3 3 1031.0 1030.9 0.0
25/12:30am 11.4 9.5 6.7 73 2.2 NNW 6 6 3 3 1031.2 1031.1 0.0
25/12:00am 11.5 9.6 6.6 72 2.3 NNW 6 9 3 5 1031.4 1031.3 0.0
 
Date/Time
EST
Temp
°C
App
Temp
°C
Dew
Point
Rel
Hum
%
Delta-T
°C
Wind Press
QNH
hPa
Press
MSL
hPa
Rain
since 9 am
mm
Dir
 
Spd
km/h
Gust
km/h
Spd
kts
Gust
kts
24/11:30pm 11.5 9.6 6.8 73 2.2 NW 6 9 3 5 1031.7 1031.6 0.0
24/11:00pm 11.3 9.4 6.8 74 2.1 NNW 6 7 3 4 1031.7 1031.6 0.0
24/10:30pm 11.5 9.6 6.6 72 2.3 NNW 6 7 3 4 1031.7 1031.6 0.0
24/10:00pm 11.8 10.1 7.5 75 2.1 NW 6 7 3 4 1032.0 1031.9 0.0
24/09:30pm 12.1 10.3 7.8 75 2.1 NW 7 9 4 5 1032.1 1032.0 0.0
24/09:00pm 11.9 10.1 8.0 77 1.9 NW 7 9 4 5 1031.9 1031.8 0.0
24/08:30pm 11.7 10.1 7.8 77 1.9 NW 6 9 3 5 1031.8 1031.7 0.0
24/08:00pm 11.6 9.9 7.7 77 1.9 NW 6 7 3 4 1031.7 1031.6 0.0
24/07:30pm 11.4 9.5 7.5 77 1.9 NW 7 7 4 4 1031.6 1031.5 0.0
24/07:00pm 11.0 9.7 7.5 79 1.7 NW 4 6 2 3 1031.8 1031.7 0.0
24/06:30pm 11.2 9.8 7.1 76 2.0 WNW 4 6 2 3 1031.7 1031.6 0.0

Other Formats:

Comma delimited format used in spreadsheet applications
http://www.bom.gov.au/fwo/IDN60801/IDN60801.94938.axf

JavaScript Object Notation format (JSON) in row-major order
http://www.bom.gov.au/fwo/IDN60801/IDN60801.94938.json